createdAt,value
2022-12-22T00:01:53.643Z,49.60
2022-12-22T00:04:39.490Z,49.60
2022-12-22T00:07:24.961Z,49.60
2022-12-22T00:10:10.582Z,49.60
2022-12-22T00:12:55.800Z,49.50
2022-12-22T00:15:41.602Z,49.50
2022-12-22T00:18:32.704Z,49.50
2022-12-22T00:21:17.962Z,49.40
2022-12-22T00:24:03.293Z,49.40
2022-12-22T00:26:49.983Z,49.40
2022-12-22T00:29:35.414Z,49.30
2022-12-22T00:32:21.818Z,49.30
2022-12-22T00:35:07.228Z,49.30
2022-12-22T00:37:55.066Z,49.30
2022-12-22T00:40:43.862Z,49.20
2022-12-22T00:43:29.422Z,49.20
2022-12-22T00:46:15.271Z,49.20
2022-12-22T00:49:01.817Z,49.20
2022-12-22T00:51:47.165Z,49.20
2022-12-22T00:54:33.426Z,49.20
2022-12-22T00:57:19.902Z,49.20
2022-12-22T01:00:06.809Z,49.20
2022-12-22T01:02:52.721Z,49.10
2022-12-22T01:05:38.145Z,49.10
2022-12-22T01:08:23.601Z,49.10
2022-12-22T01:11:09.368Z,49.10
2022-12-22T01:13:55.854Z,49.10
2022-12-22T01:16:41.207Z,49.10
2022-12-22T01:19:26.583Z,49.10
2022-12-22T01:22:12.222Z,49.00
2022-12-22T01:24:57.548Z,49.00
2022-12-22T01:27:42.776Z,49.00
2022-12-22T01:30:29.237Z,48.90
2022-12-22T01:33:14.590Z,49.00
2022-12-22T01:36:00.394Z,48.90
2022-12-22T01:38:45.774Z,49.00
2022-12-22T01:41:35.101Z,49.00
2022-12-22T01:44:20.324Z,48.90
2022-12-22T01:47:06.218Z,48.90
2022-12-22T01:50:02.739Z,48.90
2022-12-22T01:52:51.762Z,48.80
2022-12-22T01:55:41.471Z,48.90
2022-12-22T01:58:44.129Z,49.00
2022-12-22T02:01:29.494Z,48.90
2022-12-22T02:04:15.323Z,48.90
2022-12-22T02:07:01.828Z,48.90
2022-12-22T02:09:53.279Z,48.90
2022-12-22T02:12:38.412Z,48.90
2022-12-22T02:15:34.575Z,48.90
2022-12-22T02:18:26.438Z,48.80
2022-12-22T02:21:13.996Z,48.80
2022-12-22T02:24:21.303Z,48.90
2022-12-22T02:27:10.770Z,48.80
2022-12-22T02:30:04.276Z,48.90
2022-12-22T02:32:53.690Z,48.90
2022-12-22T02:35:39.031Z,48.90
2022-12-22T02:38:43.507Z,48.90
2022-12-22T02:41:50.149Z,48.80
2022-12-22T02:44:54.285Z,48.80
2022-12-22T02:47:50.962Z,48.90
2022-12-22T02:50:48.452Z,48.90
2022-12-22T02:53:34.906Z,48.90
2022-12-22T02:56:25.337Z,48.90
2022-12-22T02:59:11.488Z,48.90
2022-12-22T03:01:57.481Z,48.90
2022-12-22T03:04:42.898Z,48.90
2022-12-22T03:07:28.366Z,48.90
2022-12-22T03:10:13.686Z,48.90
2022-12-22T03:12:59.193Z,48.90
2022-12-22T03:15:44.804Z,48.90
2022-12-22T03:18:31.807Z,48.90
2022-12-22T03:21:17.497Z,48.90
2022-12-22T03:24:03.128Z,48.90
2022-12-22T03:26:30.555Z,48.90
2022-12-22T03:28:57.447Z,48.90
2022-12-22T03:31:24.405Z,48.90
2022-12-22T03:33:51.313Z,48.90
2022-12-22T03:36:18.191Z,48.90
2022-12-22T03:38:45.010Z,48.80
2022-12-22T03:41:34.605Z,48.80
2022-12-22T03:44:19.990Z,48.80
2022-12-22T03:46:46.914Z,48.80
2022-12-22T03:49:13.922Z,48.80
2022-12-22T03:51:46.649Z,48.80
2022-12-22T03:54:19.761Z,48.80
2022-12-22T03:56:46.976Z,48.80
2022-12-22T03:59:14.542Z,48.80
2022-12-22T04:01:44.516Z,48.80
2022-12-22T04:04:12.537Z,48.90
2022-12-22T04:06:39.770Z,48.80
2022-12-22T04:09:07.169Z,48.80
2022-12-22T04:11:52.553Z,48.80
2022-12-22T04:14:20.132Z,48.80
2022-12-22T04:16:47.267Z,48.80
2022-12-22T04:19:14.639Z,49.00
2022-12-22T04:21:41.725Z,48.80
2022-12-22T04:24:08.777Z,48.80
2022-12-22T04:26:35.730Z,48.80
2022-12-22T04:29:02.689Z,48.80
2022-12-22T04:31:29.866Z,48.80
2022-12-22T04:33:56.743Z,48.80
2022-12-22T04:36:23.580Z,48.80
2022-12-22T04:38:50.425Z,48.80
2022-12-22T04:41:17.318Z,48.80
2022-12-22T04:43:44.232Z,48.80
2022-12-22T04:46:11.131Z,48.90
2022-12-22T04:48:38.155Z,48.80
2022-12-22T04:51:05.307Z,48.90
2022-12-22T04:53:32.448Z,48.80
2022-12-22T04:56:01.853Z,48.90
2022-12-22T04:58:28.661Z,48.90
2022-12-22T05:00:55.862Z,48.90
2022-12-22T05:03:23.371Z,49.10
2022-12-22T05:05:50.605Z,49.00
2022-12-22T05:08:17.510Z,49.00
2022-12-22T05:10:44.397Z,49.00
2022-12-22T05:13:11.270Z,49.00
2022-12-22T05:15:38.180Z,49.00
2022-12-22T05:18:05.441Z,49.00
2022-12-22T05:20:32.400Z,49.00
2022-12-22T05:22:59.335Z,49.00
2022-12-22T05:25:31.346Z,49.00
2022-12-22T05:28:01.471Z,48.90
2022-12-22T05:30:28.346Z,49.00
2022-12-22T05:32:55.193Z,49.00
2022-12-22T05:35:22.089Z,49.00
2022-12-22T05:37:48.926Z,49.00
2022-12-22T05:40:15.783Z,49.00
2022-12-22T05:42:42.633Z,49.00
2022-12-22T05:45:16.444Z,48.90
2022-12-22T05:47:44.421Z,48.90
2022-12-22T05:50:12.905Z,48.90
2022-12-22T05:52:40.002Z,48.90
2022-12-22T05:55:07.789Z,49.00
2022-12-22T05:57:35.159Z,49.00
2022-12-22T06:00:02.375Z,49.60
2022-12-22T06:02:39.699Z,49.00
2022-12-22T06:05:07.075Z,49.00
2022-12-22T06:07:33.956Z,49.00
2022-12-22T06:10:02.817Z,49.00
2022-12-22T06:12:34.896Z,49.00
2022-12-22T06:15:01.849Z,49.00
2022-12-22T06:17:28.671Z,49.00
2022-12-22T06:19:55.555Z,49.00
2022-12-22T06:22:22.520Z,49.00
2022-12-22T06:24:49.425Z,49.10
2022-12-22T06:27:16.240Z,49.00
2022-12-22T06:29:43.088Z,49.00
2022-12-22T06:32:10.016Z,49.00
2022-12-22T06:34:36.855Z,49.00
2022-12-22T06:37:03.751Z,49.10
2022-12-22T06:39:30.668Z,49.10
2022-12-22T06:42:15.867Z,49.10
2022-12-22T06:44:42.755Z,49.10
2022-12-22T06:47:09.597Z,49.10
2022-12-22T06:49:36.596Z,49.10
2022-12-22T06:52:03.688Z,49.10
2022-12-22T06:54:30.519Z,49.10
2022-12-22T06:56:57.394Z,49.20
2022-12-22T06:59:24.268Z,49.10
2022-12-22T07:01:51.212Z,49.10
2022-12-22T07:04:20.728Z,49.20
2022-12-22T07:06:47.876Z,49.20
2022-12-22T07:09:14.793Z,49.10
2022-12-22T07:11:41.805Z,49.40
2022-12-22T07:14:08.731Z,49.40
2022-12-22T07:16:35.656Z,49.30
2022-12-22T07:19:02.626Z,49.30
2022-12-22T07:21:29.616Z,49.30
2022-12-22T07:23:56.465Z,49.30
2022-12-22T07:26:23.344Z,49.30
2022-12-22T07:28:50.244Z,49.30
2022-12-22T07:31:19.867Z,49.30
2022-12-22T07:33:46.923Z,49.20
2022-12-22T07:36:16.349Z,49.20
2022-12-22T07:38:43.860Z,49.30
2022-12-22T07:41:30.891Z,49.20
2022-12-22T07:44:00.850Z,49.50
2022-12-22T07:46:29.921Z,49.50
2022-12-22T07:49:15.736Z,49.50
2022-12-22T07:51:43.061Z,49.40
2022-12-22T07:54:12.220Z,49.50
2022-12-22T07:56:39.525Z,50.60
2022-12-22T07:59:06.779Z,50.50
2022-12-22T08:01:33.859Z,50.80
2022-12-22T08:04:00.885Z,51.20
2022-12-22T08:06:27.811Z,51.20
2022-12-22T08:08:54.677Z,51.20
2022-12-22T08:11:21.539Z,51.10
2022-12-22T08:13:49.851Z,51.20
2022-12-22T08:16:17.919Z,51.20
2022-12-22T08:18:44.878Z,51.40
2022-12-22T08:21:11.777Z,51.50
2022-12-22T08:23:38.772Z,51.50
2022-12-22T08:26:30.609Z,51.50
2022-12-22T08:29:04.024Z,51.50
2022-12-22T08:31:31.029Z,51.50
2022-12-22T08:34:00.534Z,51.50
2022-12-22T08:36:27.492Z,51.60
2022-12-22T08:38:55.503Z,51.70
2022-12-22T08:41:42.361Z,51.90
2022-12-22T08:44:09.298Z,51.90
2022-12-22T08:46:36.235Z,51.70
2022-12-22T08:49:03.155Z,51.60
2022-12-22T08:51:29.995Z,51.80
2022-12-22T08:54:05.921Z,52.10
2022-12-22T08:56:33.762Z,52.30
2022-12-22T08:59:05.074Z,51.40
2022-12-22T09:01:33.853Z,51.60
2022-12-22T09:04:00.933Z,51.90
2022-12-22T09:06:31.885Z,52.20
2022-12-22T09:09:03.921Z,52.10
2022-12-22T09:11:31.109Z,52.00
2022-12-22T09:14:00.038Z,52.50
2022-12-22T09:16:29.324Z,52.60
2022-12-22T09:18:56.244Z,52.40
2022-12-22T09:21:24.254Z,52.10
2022-12-22T09:23:51.401Z,52.30
2022-12-22T09:26:20.384Z,52.20
2022-12-22T09:28:50.461Z,52.30
2022-12-22T09:31:21.690Z,52.30
2022-12-22T09:33:49.021Z,52.50
2022-12-22T09:36:18.329Z,52.10
2022-12-22T09:38:45.118Z,52.20
2022-12-22T09:41:22.980Z,51.90
2022-12-22T09:43:49.893Z,52.20
2022-12-22T09:46:24.089Z,52.30
2022-12-22T09:48:51.914Z,52.30
2022-12-22T09:51:26.164Z,52.10
2022-12-22T09:54:03.087Z,52.00
2022-12-22T09:56:30.741Z,51.90
2022-12-22T09:58:58.277Z,52.00
2022-12-22T10:01:30.956Z,52.00
2022-12-22T10:04:25.514Z,51.90
2022-12-22T10:07:03.641Z,51.40
2022-12-22T10:12:21.895Z,51.30
2022-12-22T10:14:50.449Z,51.30
2022-12-22T10:17:32.813Z,51.00
2022-12-22T10:20:20.997Z,51.00
2022-12-22T10:23:15.378Z,51.10
2022-12-22T10:26:27.409Z,51.20
2022-12-22T10:28:50.970Z,51.30
2022-12-22T10:31:26.443Z,51.40
2022-12-22T10:33:55.708Z,51.30
2022-12-22T10:36:24.174Z,51.30
2022-12-22T10:38:59.078Z,51.20
2022-12-22T10:41:29.297Z,51.50
2022-12-22T10:44:16.403Z,51.60
2022-12-22T10:46:50.156Z,51.50
2022-12-22T10:49:25.502Z,51.60
2022-12-22T10:51:55.158Z,51.60
2022-12-22T10:54:29.716Z,51.50
2022-12-22T10:57:25.371Z,51.50
2022-12-22T10:59:52.174Z,51.60
2022-12-22T11:02:22.635Z,51.60
2022-12-22T11:04:50.314Z,51.70
2022-12-22T11:07:17.674Z,51.70
2022-12-22T11:09:44.624Z,52.00
2022-12-22T11:12:34.944Z,51.80
2022-12-22T11:15:04.928Z,51.60
2022-12-22T11:17:44.213Z,51.60
2022-12-22T11:20:29.929Z,51.60
2022-12-22T11:23:04.558Z,51.50
2022-12-22T11:25:43.007Z,51.60
2022-12-22T11:28:15.619Z,51.70
2022-12-22T11:30:59.366Z,51.70
2022-12-22T11:33:51.297Z,51.70
2022-12-22T11:36:48.148Z,51.70
2022-12-22T11:39:17.719Z,51.70
2022-12-22T11:42:23.029Z,51.90
2022-12-22T11:44:55.433Z,51.90
2022-12-22T11:47:28.340Z,51.90
2022-12-22T11:50:59.174Z,51.90
2022-12-22T11:53:16.035Z,51.80
2022-12-22T11:55:47.490Z,51.80
2022-12-22T11:58:20.390Z,51.80
2022-12-22T12:01:16.200Z,51.80
2022-12-22T12:03:52.295Z,51.70
2022-12-22T12:06:29.610Z,51.70
2022-12-22T12:09:05.722Z,51.70
2022-12-22T12:11:43.485Z,51.60
2022-12-22T12:14:41.251Z,51.50
2022-12-22T12:17:36.497Z,51.40
2022-12-22T12:20:21.404Z,51.50
2022-12-22T12:22:58.376Z,51.70
2022-12-22T12:25:27.944Z,51.60
2022-12-22T12:28:06.956Z,51.60
2022-12-22T12:30:52.203Z,51.50
2022-12-22T12:33:36.411Z,51.40
2022-12-22T12:36:24.588Z,51.30
2022-12-22T12:39:13.390Z,51.30
2022-12-22T12:41:52.407Z,51.20
2022-12-22T12:44:23.185Z,51.20
2022-12-22T12:46:53.113Z,51.20
2022-12-22T12:49:35.281Z,51.10
2022-12-22T12:52:08.657Z,51.00
2022-12-22T12:54:39.614Z,51.00
2022-12-22T12:57:52.606Z,51.00
2022-12-22T13:00:34.930Z,50.80
2022-12-22T13:03:25.087Z,50.80
2022-12-22T13:06:01.273Z,50.80
2022-12-22T13:08:31.453Z,50.80
2022-12-22T13:10:58.323Z,50.80
2022-12-22T13:13:25.146Z,50.70
2022-12-22T13:16:01.128Z,50.70
2022-12-22T13:18:30.795Z,50.60
2022-12-22T13:21:42.465Z,50.60
2022-12-22T13:26:44.645Z,50.60
2022-12-22T13:29:23.928Z,50.60
2022-12-22T13:31:56.095Z,50.50
2022-12-22T13:34:57.649Z,50.50
2022-12-22T13:37:28.471Z,50.50
2022-12-22T13:40:19.084Z,50.50
2022-12-22T13:42:53.157Z,50.50
2022-12-22T13:45:30.141Z,50.50
2022-12-22T13:47:57.481Z,50.50
2022-12-22T13:50:28.439Z,50.40
2022-12-22T13:52:56.424Z,50.30
2022-12-22T13:55:28.825Z,50.30
2022-12-22T13:57:58.907Z,50.30
2022-12-22T14:00:27.212Z,50.30
2022-12-22T14:02:54.338Z,50.30
2022-12-22T14:05:21.703Z,50.20
2022-12-22T14:08:05.654Z,50.20
2022-12-22T14:10:37.951Z,50.10
2022-12-22T14:13:14.631Z,50.20
2022-12-22T14:15:42.216Z,50.10
2022-12-22T14:18:17.180Z,50.20
2022-12-22T14:20:46.010Z,50.20
2022-12-22T14:23:22.379Z,50.10
2022-12-22T14:25:50.118Z,50.00
2022-12-22T14:28:26.601Z,50.10
2022-12-22T14:30:55.690Z,50.00
2022-12-22T14:33:28.121Z,50.10
2022-12-22T14:36:26.604Z,50.00
2022-12-22T14:39:02.531Z,50.00
2022-12-22T14:41:51.468Z,50.10
2022-12-22T14:44:20.174Z,50.10
2022-12-22T14:47:12.011Z,50.10
2022-12-22T14:49:54.415Z,50.00
2022-12-22T14:52:44.138Z,50.00
2022-12-22T14:55:38.182Z,50.00
2022-12-22T14:58:11.020Z,50.00
2022-12-22T15:00:40.003Z,50.00
2022-12-22T15:03:35.900Z,50.10
2022-12-22T15:06:32.064Z,49.90
2022-12-22T15:09:07.424Z,50.00
2022-12-22T15:11:36.286Z,50.10
2022-12-22T15:14:03.998Z,50.10
2022-12-22T15:16:31.009Z,50.00
2022-12-22T15:18:58.146Z,50.10
2022-12-22T15:21:25.044Z,50.00
2022-12-22T15:23:51.845Z,50.60
2022-12-22T15:26:18.672Z,49.90
2022-12-22T15:28:45.522Z,49.90
2022-12-22T15:31:15.158Z,49.90
2022-12-22T15:33:43.360Z,49.90
2022-12-22T15:36:12.327Z,49.90
2022-12-22T15:38:39.926Z,49.90
2022-12-22T15:41:07.352Z,49.90
2022-12-22T15:46:22.592Z,50.20
2022-12-22T15:48:49.814Z,50.50
2022-12-22T15:51:24.940Z,50.60
2022-12-22T15:53:52.508Z,50.50
2022-12-22T15:56:22.371Z,50.70
2022-12-22T15:58:49.488Z,50.90
2022-12-22T16:01:16.478Z,51.00
2022-12-22T16:03:43.551Z,51.20
2022-12-22T16:06:14.278Z,51.30
2022-12-22T16:08:43.718Z,51.60
2022-12-22T16:11:10.792Z,51.70
2022-12-22T16:13:37.879Z,51.90
2022-12-22T16:16:05.387Z,52.30
2022-12-22T16:18:33.055Z,52.60
2022-12-22T16:21:07.901Z,54.80
2022-12-22T16:23:35.987Z,54.60
2022-12-22T16:26:04.465Z,54.50
2022-12-22T16:28:32.973Z,54.40
2022-12-22T16:31:01.303Z,54.30
2022-12-22T16:33:28.971Z,54.30
2022-12-22T16:35:55.911Z,54.00
2022-12-22T16:38:22.874Z,54.00
2022-12-22T16:40:52.215Z,53.60
2022-12-22T16:43:50.242Z,53.60
2022-12-22T16:46:19.653Z,53.60
2022-12-22T16:48:49.520Z,53.60
2022-12-22T16:51:24.017Z,53.50
2022-12-22T16:53:51.024Z,53.50
2022-12-22T16:56:20.893Z,53.40
2022-12-22T16:58:48.284Z,53.40
2022-12-22T17:01:45.969Z,53.30
2022-12-22T17:04:26.056Z,53.70
2022-12-22T17:06:53.533Z,53.10
2022-12-22T17:09:31.082Z,53.00
2022-12-22T17:11:58.501Z,53.00
2022-12-22T17:14:34.529Z,52.90
2022-12-22T17:17:01.434Z,53.00
2022-12-22T17:19:28.322Z,53.00
2022-12-22T17:21:55.854Z,53.00
2022-12-22T17:24:28.140Z,53.00
2022-12-22T17:27:01.747Z,52.60
2022-12-22T17:29:30.028Z,52.80
2022-12-22T17:31:57.225Z,52.90
2022-12-22T17:34:24.135Z,52.80
2022-12-22T17:36:51.297Z,52.70
2022-12-22T17:39:21.935Z,52.60
2022-12-22T17:41:56.148Z,52.50
2022-12-22T17:44:25.414Z,53.20
2022-12-22T17:46:52.466Z,52.40
2022-12-22T17:49:22.336Z,52.30
2022-12-22T17:51:50.081Z,52.20
2022-12-22T17:54:26.905Z,52.30
2022-12-22T17:56:57.789Z,52.20
2022-12-22T17:59:24.626Z,52.50
2022-12-22T18:01:51.606Z,52.50
2022-12-22T18:04:18.588Z,52.50
2022-12-22T18:06:45.743Z,52.60
2022-12-22T18:09:20.328Z,52.70
2022-12-22T18:11:47.852Z,52.70
2022-12-22T18:14:15.618Z,52.60
2022-12-22T18:16:43.944Z,52.50
2022-12-22T18:19:10.928Z,52.60
2022-12-22T18:21:38.072Z,52.60
2022-12-22T18:24:05.620Z,52.50
2022-12-22T18:26:32.877Z,52.40
2022-12-22T18:29:00.052Z,52.40
2022-12-22T18:31:27.095Z,52.40
2022-12-22T18:33:54.067Z,52.40
2022-12-22T18:36:40.160Z,52.50
2022-12-22T18:39:11.825Z,53.30
2022-12-22T18:41:41.932Z,52.90
2022-12-22T18:44:16.583Z,53.40
2022-12-22T18:46:43.622Z,53.50
2022-12-22T18:49:10.514Z,53.50
2022-12-22T18:51:37.453Z,54.00
2022-12-22T18:54:08.865Z,54.00
2022-12-22T18:56:35.721Z,54.10
2022-12-22T18:59:02.628Z,54.40
2022-12-22T19:01:29.776Z,54.40
2022-12-22T19:03:57.019Z,54.50
2022-12-22T19:06:24.397Z,55.30
2022-12-22T19:08:51.869Z,54.70
2022-12-22T19:11:22.038Z,54.70
2022-12-22T19:13:51.135Z,54.80
2022-12-22T19:16:18.562Z,55.00
2022-12-22T19:18:45.709Z,54.80
2022-12-22T19:21:14.227Z,55.20
2022-12-22T19:23:41.393Z,55.30
2022-12-22T19:26:21.627Z,55.40
2022-12-22T19:28:51.878Z,55.30
2022-12-22T19:31:23.237Z,55.40
2022-12-22T19:33:50.739Z,55.20
2022-12-22T19:36:22.004Z,55.60
2022-12-22T19:38:51.032Z,55.50
2022-12-22T19:41:45.504Z,55.20
2022-12-22T19:44:20.913Z,54.80
2022-12-22T19:46:48.586Z,55.00
2022-12-22T19:49:17.242Z,54.90
2022-12-22T19:51:44.144Z,54.80
2022-12-22T19:54:11.089Z,54.70
2022-12-22T19:56:37.951Z,54.50
2022-12-22T19:59:20.411Z,54.40
2022-12-22T20:01:50.752Z,54.40
2022-12-22T20:04:17.714Z,54.30
2022-12-22T20:06:44.616Z,54.20
2022-12-22T20:09:11.443Z,54.00
2022-12-22T20:11:38.373Z,54.10
2022-12-22T20:14:05.285Z,54.00
2022-12-22T20:16:32.195Z,53.90
2022-12-22T20:18:59.118Z,53.90
2022-12-22T20:21:28.258Z,53.80
2022-12-22T20:23:55.453Z,53.70
2022-12-22T20:26:24.951Z,53.60
2022-12-22T20:28:52.977Z,53.90
2022-12-22T20:31:22.565Z,53.80
2022-12-22T20:33:51.223Z,53.80
2022-12-22T20:36:31.826Z,54.30
2022-12-22T20:38:59.721Z,53.60
2022-12-22T20:41:27.033Z,53.50
2022-12-22T20:43:54.088Z,53.50
2022-12-22T20:46:24.559Z,53.40
2022-12-22T20:48:56.738Z,53.40
2022-12-22T20:51:25.710Z,53.40
2022-12-22T20:53:53.396Z,53.40
2022-12-22T20:56:29.531Z,53.40
2022-12-22T20:58:58.280Z,53.40
2022-12-22T21:01:26.427Z,53.30
2022-12-22T21:03:53.457Z,53.20
2022-12-22T21:06:24.741Z,53.20
2022-12-22T21:08:52.934Z,53.20
2022-12-22T21:11:19.924Z,53.10
2022-12-22T21:13:46.888Z,53.00
2022-12-22T21:16:17.724Z,53.00
2022-12-22T21:18:44.990Z,53.00
2022-12-22T21:21:12.532Z,52.90
2022-12-22T21:23:39.386Z,52.80
2022-12-22T21:26:15.430Z,52.80
2022-12-22T21:28:42.352Z,52.80
2022-12-22T21:31:09.294Z,52.70
2022-12-22T21:33:36.268Z,52.70
2022-12-22T21:36:03.480Z,52.60
2022-12-22T21:38:32.516Z,52.60
2022-12-22T21:40:59.756Z,52.60
2022-12-22T21:43:26.570Z,52.50
2022-12-22T21:45:53.671Z,52.50
2022-12-22T21:48:21.149Z,52.50
2022-12-22T21:50:50.306Z,52.50
2022-12-22T21:53:22.175Z,52.50
2022-12-22T21:55:50.002Z,52.40
2022-12-22T21:58:16.854Z,52.60
2022-12-22T22:00:48.304Z,52.60
2022-12-22T22:03:16.136Z,52.50
2022-12-22T22:05:43.605Z,52.40
2022-12-22T22:08:11.968Z,52.40
2022-12-22T22:10:41.532Z,52.40
2022-12-22T22:13:08.892Z,52.30
2022-12-22T22:15:35.820Z,52.30
2022-12-22T22:18:06.826Z,52.30
2022-12-22T22:20:34.358Z,52.30
2022-12-22T22:23:01.560Z,52.20
2022-12-22T22:25:28.471Z,52.20
2022-12-22T22:27:59.577Z,52.30
2022-12-22T22:30:27.370Z,52.20
2022-12-22T22:32:55.194Z,52.20
2022-12-22T22:35:23.560Z,52.20
2022-12-22T22:37:51.536Z,52.20
2022-12-22T22:40:21.077Z,52.10
2022-12-22T22:42:48.230Z,52.20
2022-12-22T22:45:22.896Z,52.20
2022-12-22T22:47:53.358Z,52.20
2022-12-22T22:50:21.576Z,52.10
2022-12-22T22:52:48.728Z,52.10
2022-12-22T22:55:15.853Z,52.10
2022-12-22T22:57:43.046Z,52.10
2022-12-22T23:00:12.357Z,52.70
2022-12-22T23:02:39.354Z,52.10
2022-12-22T23:05:07.085Z,52.00
2022-12-22T23:07:34.684Z,52.00
2022-12-22T23:10:01.587Z,52.00
2022-12-22T23:12:28.551Z,52.00
2022-12-22T23:14:55.463Z,52.00
2022-12-22T23:17:22.437Z,51.90
2022-12-22T23:19:49.376Z,51.90
2022-12-22T23:22:16.491Z,51.90
2022-12-22T23:24:43.380Z,52.00
2022-12-22T23:27:10.321Z,52.00
2022-12-22T23:29:37.355Z,52.00
2022-12-22T23:32:04.977Z,52.60
2022-12-22T23:34:32.067Z,51.90
2022-12-22T23:36:58.917Z,52.00
2022-12-22T23:39:25.733Z,51.90
2022-12-22T23:41:52.599Z,51.90
2022-12-22T23:44:19.462Z,51.90
2022-12-22T23:46:46.379Z,52.10
2022-12-22T23:49:13.999Z,52.00
2022-12-22T23:51:40.830Z,52.00
2022-12-22T23:54:07.671Z,51.90
2022-12-22T23:56:34.683Z,51.90
2022-12-22T23:59:01.636Z,51.80
